createdAt,value
2023-08-26T00:01:39.630Z,1.70
2023-08-26T00:04:07.059Z,1.95
2023-08-26T00:06:35.620Z,2.17
2023-08-26T00:09:02.638Z,2.33
2023-08-26T00:11:29.635Z,2.42
2023-08-26T00:13:57.083Z,2.00
2023-08-26T00:16:24.038Z,2.25
2023-08-26T00:18:51.117Z,1.75
2023-08-26T00:21:22.460Z,1.88
2023-08-26T00:23:50.475Z,2.25
2023-08-26T00:26:20.308Z,1.98
2023-08-26T00:28:47.650Z,2.30
2023-08-26T00:31:14.714Z,2.13
2023-08-26T00:33:41.783Z,2.35
2023-08-26T00:36:09.597Z,1.92
2023-08-26T00:38:36.646Z,2.53
2023-08-26T00:41:03.554Z,2.00
2023-08-26T00:43:32.186Z,2.13
2023-08-26T00:46:00.170Z,2.00
2023-08-26T00:48:27.421Z,2.75
2023-08-26T00:50:55.880Z,2.22
2023-08-26T00:53:23.293Z,2.03
2023-08-26T00:55:52.793Z,2.58
2023-08-26T00:58:20.165Z,1.70
2023-08-26T01:00:47.225Z,2.00
2023-08-26T01:03:14.387Z,1.88
2023-08-26T01:05:41.435Z,1.90
2023-08-26T01:08:09.046Z,2.00
2023-08-26T01:10:38.870Z,2.40
2023-08-26T01:13:13.407Z,2.13
2023-08-26T01:15:46.426Z,2.92
2023-08-26T01:18:15.101Z,2.97
2023-08-26T01:20:43.691Z,3.65
2023-08-26T01:23:55.651Z,3.55
2023-08-26T01:26:23.158Z,3.65
2023-08-26T01:28:50.198Z,4.22
2023-08-26T01:31:18.167Z,3.80
2023-08-26T01:34:07.108Z,4.00
2023-08-26T01:36:36.281Z,3.90
2023-08-26T01:39:04.780Z,3.40
2023-08-26T01:41:32.648Z,3.50
2023-08-26T01:44:00.365Z,3.58
2023-08-26T01:46:40.054Z,3.78
2023-08-26T01:49:07.120Z,3.95
2023-08-26T01:51:34.496Z,3.97
2023-08-26T01:54:02.488Z,4.65
2023-08-26T01:56:29.394Z,3.30
2023-08-26T01:58:56.576Z,4.88
2023-08-26T02:01:23.562Z,4.40
2023-08-26T02:03:50.761Z,4.00
2023-08-26T02:06:17.849Z,4.80
2023-08-26T02:08:45.710Z,7.10
2023-08-26T02:11:12.643Z,5.32
2023-08-26T02:13:40.745Z,5.63
2023-08-26T02:16:07.689Z,6.70
2023-08-26T02:18:34.861Z,6.03
2023-08-26T02:21:01.736Z,7.10
2023-08-26T02:23:28.849Z,6.72
2023-08-26T02:25:55.825Z,6.55
2023-08-26T02:28:22.838Z,6.82
2023-08-26T02:30:50.099Z,7.50
2023-08-26T02:33:17.050Z,7.30
2023-08-26T02:35:48.178Z,7.95
2023-08-26T02:38:15.919Z,7.93
2023-08-26T02:40:42.846Z,8.25
2023-08-26T02:43:10.201Z,8.05
2023-08-26T02:45:37.397Z,8.57
2023-08-26T02:48:04.862Z,9.55
2023-08-26T02:50:32.006Z,8.60
2023-08-26T02:52:59.024Z,7.30
2023-08-26T02:55:25.888Z,5.53
2023-08-26T02:57:52.875Z,5.20
2023-08-26T03:00:20.054Z,5.93
2023-08-26T03:02:47.446Z,5.75
2023-08-26T03:05:15.393Z,5.72
2023-08-26T03:07:42.497Z,6.95
2023-08-26T03:10:10.936Z,7.55
2023-08-26T03:12:38.104Z,8.63
2023-08-26T03:15:05.627Z,8.90
2023-08-26T03:17:32.802Z,8.48
2023-08-26T03:19:59.811Z,8.98
2023-08-26T03:22:26.687Z,8.68
2023-08-26T03:24:53.896Z,9.63
2023-08-26T03:27:21.033Z,9.48
2023-08-26T03:29:48.237Z,9.00
2023-08-26T03:32:17.729Z,9.30
2023-08-26T03:34:45.755Z,8.70
2023-08-26T03:37:12.680Z,8.75
2023-08-26T03:39:41.087Z,7.95
2023-08-26T03:42:08.311Z,8.93
2023-08-26T03:44:35.186Z,7.13
2023-08-26T03:47:03.252Z,6.60
2023-08-26T03:49:30.410Z,7.47
2023-08-26T03:51:57.350Z,7.35
2023-08-26T03:54:24.650Z,8.20
2023-08-26T03:56:51.527Z,7.85
2023-08-26T03:59:20.379Z,7.90
2023-08-26T04:01:47.287Z,8.95
2023-08-26T04:04:16.638Z,9.75
2023-08-26T04:06:43.585Z,10.15
2023-08-26T04:09:10.679Z,10.77
2023-08-26T04:11:37.673Z,10.23
2023-08-26T04:14:05.102Z,10.63
2023-08-26T04:16:31.992Z,11.93
2023-08-26T04:18:59.912Z,11.30
2023-08-26T04:21:27.488Z,11.20
2023-08-26T04:23:54.502Z,11.60
2023-08-26T04:26:22.581Z,10.75
2023-08-26T04:28:49.528Z,11.52
2023-08-26T04:31:17.175Z,11.45
2023-08-26T04:33:45.134Z,12.95
2023-08-26T04:36:12.840Z,12.85
2023-08-26T04:38:39.735Z,12.55
2023-08-26T04:41:07.539Z,12.63
2023-08-26T04:43:35.581Z,12.68
2023-08-26T04:46:02.602Z,13.82
2023-08-26T04:48:32.266Z,13.07
2023-08-26T04:50:59.392Z,14.10
2023-08-26T04:53:26.488Z,14.43
2023-08-26T04:55:53.987Z,15.40
2023-08-26T04:58:20.892Z,17.25
2023-08-26T05:00:48.479Z,16.33
2023-08-26T05:03:15.771Z,17.40
2023-08-26T05:05:43.673Z,15.88
2023-08-26T05:08:10.982Z,16.67
2023-08-26T05:10:41.444Z,16.10
2023-08-26T05:13:08.461Z,14.75
2023-08-26T05:15:35.420Z,13.75
2023-08-26T05:18:02.523Z,13.68
2023-08-26T05:20:31.216Z,13.80
2023-08-26T05:22:58.319Z,13.68
2023-08-26T05:25:25.958Z,10.85
2023-08-26T05:27:53.407Z,12.98
2023-08-26T05:30:29.629Z,11.75
2023-08-26T05:32:57.700Z,11.52
2023-08-26T05:35:24.902Z,11.07
2023-08-26T05:37:51.826Z,11.82
2023-08-26T05:40:19.463Z,11.18
2023-08-26T05:42:47.380Z,10.80
2023-08-26T05:45:14.482Z,8.88
2023-08-26T05:47:43.116Z,9.43
2023-08-26T05:50:10.616Z,9.23
2023-08-26T05:52:37.737Z,9.95
2023-08-26T05:55:04.990Z,8.55
2023-08-26T05:57:32.318Z,7.70
2023-08-26T06:00:00.213Z,8.35
2023-08-26T06:02:27.734Z,8.05
2023-08-26T06:04:54.787Z,8.13
2023-08-26T06:07:22.014Z,6.10
2023-08-26T06:09:48.965Z,7.20
2023-08-26T06:12:16.576Z,7.30
2023-08-26T06:14:43.996Z,7.82
2023-08-26T06:17:11.544Z,6.38
2023-08-26T06:19:38.520Z,6.78
2023-08-26T06:22:06.223Z,7.10
2023-08-26T06:24:33.394Z,6.20
2023-08-26T06:27:00.368Z,6.22
2023-08-26T06:29:27.404Z,6.88
2023-08-26T06:31:54.996Z,6.10
2023-08-26T06:34:24.044Z,6.20
2023-08-26T06:36:50.920Z,6.40
2023-08-26T06:39:18.027Z,5.00
2023-08-26T06:41:45.604Z,4.95
2023-08-26T06:44:16.233Z,5.45
2023-08-26T06:46:43.279Z,5.13
2023-08-26T06:49:11.258Z,5.85
2023-08-26T06:51:38.252Z,4.80
2023-08-26T06:54:05.498Z,4.43
2023-08-26T06:56:32.614Z,5.72
2023-08-26T06:58:59.483Z,4.80
2023-08-26T07:01:26.895Z,4.90
2023-08-26T07:03:54.709Z,4.45
2023-08-26T07:06:23.196Z,4.25
2023-08-26T07:08:50.313Z,4.45
2023-08-26T07:11:17.200Z,4.53
2023-08-26T07:13:44.220Z,3.88
2023-08-26T07:16:11.264Z,4.43
2023-08-26T07:18:38.681Z,4.10
2023-08-26T07:21:05.723Z,4.93
2023-08-26T07:23:33.446Z,4.57
2023-08-26T07:26:00.618Z,4.18
2023-08-26T07:28:27.546Z,4.22
2023-08-26T07:30:54.786Z,3.80
2023-08-26T07:33:21.819Z,4.22
2023-08-26T07:35:48.807Z,4.43
2023-08-26T07:38:15.717Z,4.95
2023-08-26T07:40:43.219Z,3.70
2023-08-26T07:43:10.116Z,4.68
2023-08-26T07:45:37.210Z,4.70
2023-08-26T07:50:34.946Z,5.03
2023-08-26T07:53:01.880Z,4.22
2023-08-26T07:55:28.852Z,4.07
2023-08-26T07:57:55.819Z,4.18
2023-08-26T08:00:22.872Z,4.47
2023-08-26T08:02:49.874Z,5.40
2023-08-26T08:05:17.108Z,4.95
2023-08-26T08:07:44.019Z,4.18
2023-08-26T08:10:12.435Z,2.90
2023-08-26T08:12:39.438Z,2.33
2023-08-26T08:15:07.677Z,2.22
2023-08-26T08:17:34.710Z,2.20
2023-08-26T08:20:02.122Z,2.10
2023-08-26T08:22:42.938Z,2.78
2023-08-26T08:25:10.761Z,2.70
2023-08-26T08:27:38.555Z,2.40
2023-08-26T08:30:06.669Z,1.85
2023-08-26T08:32:34.472Z,1.90
2023-08-26T08:35:04.302Z,3.47
2023-08-26T08:37:31.747Z,3.17
2023-08-26T08:39:58.808Z,2.92
2023-08-26T08:42:26.143Z,3.00
2023-08-26T08:44:54.245Z,3.83
2023-08-26T08:47:21.801Z,3.83
2023-08-26T08:49:49.445Z,5.30
2023-08-26T08:52:16.705Z,5.70
2023-08-26T08:54:45.617Z,8.00
2023-08-26T08:57:14.396Z,7.03
2023-08-26T08:59:42.063Z,6.60
2023-08-26T09:02:10.432Z,6.28
2023-08-26T09:04:37.508Z,5.40
2023-08-26T09:07:06.685Z,4.93
2023-08-26T09:09:40.074Z,5.30
2023-08-26T09:12:12.698Z,3.67
2023-08-26T09:14:39.756Z,3.72
2023-08-26T09:17:17.494Z,3.85
2023-08-26T09:19:55.577Z,4.13
2023-08-26T09:22:30.243Z,3.88
2023-08-26T09:24:58.442Z,3.50
2023-08-26T09:27:25.615Z,4.60
2023-08-26T09:29:53.158Z,2.58
2023-08-26T09:32:38.142Z,1.83
2023-08-26T09:35:17.280Z,1.30
2023-08-26T09:38:10.711Z,1.45
2023-08-26T09:40:39.973Z,1.20
2023-08-26T09:43:08.233Z,1.50
2023-08-26T09:45:39.504Z,1.83
2023-08-26T09:48:07.142Z,2.17
2023-08-26T09:50:34.713Z,1.55
2023-08-26T09:53:02.013Z,1.58
2023-08-26T09:55:30.006Z,1.42
2023-08-26T09:57:59.099Z,1.50
2023-08-26T10:00:27.693Z,1.35
2023-08-26T10:02:59.506Z,1.20
2023-08-26T10:05:28.532Z,1.27
2023-08-26T10:07:56.180Z,1.58
2023-08-26T10:10:32.943Z,1.58
2023-08-26T10:13:06.921Z,1.92
2023-08-26T10:15:35.031Z,1.52
2023-08-26T10:18:07.812Z,1.85
2023-08-26T10:20:35.601Z,2.35
2023-08-26T10:23:04.071Z,1.75
2023-08-26T10:25:32.492Z,1.15
2023-08-26T10:28:00.160Z,1.33
2023-08-26T10:30:27.335Z,1.15
2023-08-26T10:33:04.342Z,1.80
2023-08-26T10:35:31.545Z,1.73
2023-08-26T10:38:15.732Z,1.40
2023-08-26T10:40:43.079Z,2.00
2023-08-26T10:43:12.235Z,1.65
2023-08-26T10:45:50.109Z,1.20
2023-08-26T10:50:47.082Z,1.20
2023-08-26T10:53:21.015Z,1.10
2023-08-26T10:55:53.645Z,1.63
2023-08-26T10:58:25.071Z,1.73
2023-08-26T11:00:53.727Z,1.77
2023-08-26T11:03:22.499Z,2.08
2023-08-26T11:06:09.763Z,1.90
2023-08-26T11:08:40.233Z,1.73
2023-08-26T11:11:13.444Z,1.80
2023-08-26T11:13:42.484Z,1.75
2023-08-26T11:16:10.504Z,2.00
2023-08-26T11:18:38.255Z,1.75
2023-08-26T11:21:08.933Z,2.03
2023-08-26T11:23:36.428Z,2.03
2023-08-26T11:26:07.533Z,1.33
2023-08-26T11:28:34.734Z,1.80
2023-08-26T11:31:01.742Z,1.50
2023-08-26T11:33:29.397Z,1.88
2023-08-26T11:36:08.047Z,1.27
2023-08-26T11:38:36.522Z,1.00
2023-08-26T11:41:05.157Z,1.08
2023-08-26T11:43:32.211Z,1.00
2023-08-26T11:45:59.391Z,1.67
2023-08-26T11:48:27.136Z,1.17
2023-08-26T11:51:00.947Z,1.00
2023-08-26T11:53:28.400Z,0.98
2023-08-26T11:55:55.940Z,1.13
2023-08-26T11:58:23.375Z,1.13
2023-08-26T12:00:50.346Z,1.10
2023-08-26T12:03:18.570Z,0.90
2023-08-26T12:05:48.298Z,1.20
2023-08-26T12:08:17.330Z,1.15
2023-08-26T12:10:49.234Z,1.08
2023-08-26T12:13:17.170Z,1.30
2023-08-26T12:15:44.111Z,1.52
2023-08-26T12:21:17.670Z,1.83
2023-08-26T12:23:44.720Z,1.73
2023-08-26T12:26:15.258Z,2.20
2023-08-26T12:28:42.280Z,1.42
2023-08-26T12:31:09.601Z,1.63
2023-08-26T12:33:45.907Z,2.35
2023-08-26T12:36:21.228Z,2.00
2023-08-26T12:38:48.369Z,1.67
2023-08-26T12:41:15.370Z,1.40
2023-08-26T12:43:42.359Z,1.38
2023-08-26T12:46:09.418Z,1.33
2023-08-26T12:48:54.576Z,1.17
2023-08-26T12:51:23.505Z,1.75
2023-08-26T12:53:50.537Z,1.48
2023-08-26T12:56:17.440Z,2.08
2023-08-26T12:58:45.322Z,1.80
2023-08-26T13:01:13.674Z,2.28
2023-08-26T13:03:40.976Z,2.22
2023-08-26T13:06:07.969Z,2.25
2023-08-26T13:08:35.047Z,3.90
2023-08-26T13:11:02.159Z,3.63
2023-08-26T13:13:29.329Z,2.22
2023-08-26T13:15:57.079Z,2.00
2023-08-26T13:18:24.241Z,1.60
2023-08-26T13:20:52.580Z,2.03
2023-08-26T13:23:19.693Z,1.23
2023-08-26T13:25:46.852Z,1.35
2023-08-26T13:28:14.954Z,2.00
2023-08-26T13:30:42.018Z,1.08
2023-08-26T13:33:09.690Z,1.20
2023-08-26T13:35:36.844Z,1.10
2023-08-26T13:38:03.901Z,0.80
2023-08-26T13:40:30.870Z,1.15
2023-08-26T13:42:57.788Z,0.80
2023-08-26T13:45:24.882Z,1.17
2023-08-26T13:47:51.849Z,1.10
2023-08-26T13:50:19.012Z,0.82
2023-08-26T13:52:46.866Z,0.90
2023-08-26T13:55:15.635Z,1.20
2023-08-26T13:57:42.930Z,0.90
2023-08-26T14:00:10.441Z,1.48
2023-08-26T14:02:40.297Z,0.90
2023-08-26T14:05:08.754Z,1.13
2023-08-26T14:07:35.858Z,1.10
2023-08-26T14:10:03.771Z,1.38
2023-08-26T14:12:30.814Z,1.10
2023-08-26T14:14:57.689Z,1.10
2023-08-26T14:17:24.707Z,1.15
2023-08-26T14:19:51.667Z,2.55
2023-08-26T14:22:18.755Z,1.02
2023-08-26T14:24:49.195Z,0.90
2023-08-26T14:27:17.381Z,1.00
2023-08-26T14:29:44.642Z,1.05
2023-08-26T14:32:11.646Z,1.05
2023-08-26T14:34:38.497Z,0.63
2023-08-26T14:37:05.569Z,0.90
2023-08-26T14:39:32.535Z,1.27
2023-08-26T14:41:59.497Z,0.90
2023-08-26T14:44:27.657Z,1.05
2023-08-26T14:46:54.857Z,0.82
2023-08-26T14:49:21.854Z,0.90
2023-08-26T14:51:48.885Z,0.70
2023-08-26T14:54:15.794Z,1.13
2023-08-26T14:56:42.774Z,0.95
2023-08-26T14:59:09.738Z,1.00
2023-08-26T15:01:36.734Z,1.52
2023-08-26T15:04:03.991Z,1.10
2023-08-26T15:06:30.982Z,1.00
2023-08-26T15:08:58.118Z,0.95
2023-08-26T15:11:24.996Z,0.90
2023-08-26T15:13:52.038Z,0.93
2023-08-26T15:16:19.043Z,0.80
2023-08-26T15:18:46.131Z,0.93
2023-08-26T15:21:13.138Z,0.90
2023-08-26T15:23:40.185Z,1.00
2023-08-26T15:26:07.117Z,0.90
2023-08-26T15:28:34.090Z,0.88
2023-08-26T15:31:00.950Z,1.23
2023-08-26T15:33:27.962Z,0.93
2023-08-26T15:35:55.246Z,1.45
2023-08-26T15:38:22.656Z,1.10
2023-08-26T15:40:54.295Z,1.30
2023-08-26T15:43:21.682Z,4.03
2023-08-26T15:45:48.619Z,2.45
2023-08-26T15:48:16.012Z,2.72
2023-08-26T15:50:43.319Z,1.75
2023-08-26T15:53:14.817Z,5.82
2023-08-26T15:55:42.448Z,1.50
2023-08-26T15:58:09.811Z,1.30
2023-08-26T16:00:36.697Z,1.70
2023-08-26T16:03:05.375Z,1.85
2023-08-26T16:05:39.140Z,1.45
2023-08-26T16:08:07.144Z,1.20
2023-08-26T16:10:34.884Z,1.63
2023-08-26T16:13:01.877Z,1.30
2023-08-26T16:15:29.623Z,1.77
2023-08-26T16:17:56.963Z,1.20
2023-08-26T16:20:24.162Z,1.58
2023-08-26T16:22:51.127Z,1.38
2023-08-26T16:25:18.627Z,1.77
2023-08-26T16:27:45.619Z,1.80
2023-08-26T16:30:13.928Z,1.80
2023-08-26T16:32:42.112Z,1.70
2023-08-26T16:35:09.519Z,2.10
2023-08-26T16:37:36.526Z,2.38
2023-08-26T16:40:04.164Z,2.25
2023-08-26T16:42:31.129Z,1.90
2023-08-26T16:44:58.377Z,2.30
2023-08-26T16:47:26.077Z,2.65
2023-08-26T16:49:53.485Z,3.00
2023-08-26T16:52:20.815Z,3.00
2023-08-26T16:54:49.856Z,3.65
2023-08-26T16:57:17.799Z,4.18
2023-08-26T16:59:45.133Z,4.07
2023-08-26T17:02:12.732Z,3.72
2023-08-26T17:04:39.726Z,3.78
2023-08-26T17:07:06.904Z,4.03
2023-08-26T17:09:33.883Z,4.00
2023-08-26T17:12:00.916Z,4.82
2023-08-26T17:14:27.907Z,4.50
2023-08-26T17:16:55.444Z,4.43
2023-08-26T17:19:22.484Z,3.70
2023-08-26T17:21:50.110Z,3.17
2023-08-26T17:24:17.142Z,2.50
2023-08-26T17:26:44.366Z,3.20
2023-08-26T17:29:11.468Z,1.90
2023-08-26T17:31:38.587Z,2.63
2023-08-26T17:34:05.649Z,3.45
2023-08-26T17:36:33.516Z,3.30
2023-08-26T17:39:00.629Z,3.47
2023-08-26T17:41:27.590Z,2.97
2023-08-26T17:43:54.551Z,3.45
2023-08-26T17:46:22.737Z,3.63
2023-08-26T17:48:50.885Z,3.15
2023-08-26T17:51:18.006Z,2.92
2023-08-26T17:53:45.731Z,3.22
2023-08-26T17:56:13.129Z,3.08
2023-08-26T17:58:40.865Z,3.10
2023-08-26T18:01:08.142Z,2.33
2023-08-26T18:03:35.202Z,2.70
2023-08-26T18:06:02.420Z,2.72
2023-08-26T18:08:29.510Z,3.20
2023-08-26T18:10:56.698Z,3.38
2023-08-26T18:13:23.666Z,2.80
2023-08-26T18:15:50.993Z,3.92
2023-08-26T18:18:18.000Z,4.70
2023-08-26T18:20:45.225Z,3.20
2023-08-26T18:23:13.172Z,3.20
2023-08-26T18:25:40.255Z,3.58
2023-08-26T18:28:07.296Z,3.97
2023-08-26T18:30:34.352Z,4.32
2023-08-26T18:33:01.531Z,4.68
2023-08-26T18:35:28.930Z,3.78
2023-08-26T18:37:55.959Z,3.92
2023-08-26T18:40:25.822Z,3.70
2023-08-26T18:42:54.167Z,3.80
2023-08-26T18:45:21.209Z,3.38
2023-08-26T18:47:48.883Z,3.70
2023-08-26T18:50:16.094Z,3.67
2023-08-26T18:52:43.097Z,3.50
2023-08-26T18:55:10.205Z,3.47
2023-08-26T18:57:37.089Z,4.15
2023-08-26T19:00:04.993Z,4.03
2023-08-26T19:02:32.006Z,4.88
2023-08-26T19:04:59.349Z,5.55
2023-08-26T19:07:26.315Z,5.55
2023-08-26T19:09:53.378Z,4.57
2023-08-26T19:12:20.267Z,5.00
2023-08-26T19:14:47.258Z,4.38
2023-08-26T19:17:15.065Z,4.63
2023-08-26T19:19:42.147Z,5.07
2023-08-26T19:22:09.101Z,4.93
2023-08-26T19:24:36.128Z,4.85
2023-08-26T19:27:03.289Z,4.57
2023-08-26T19:29:32.347Z,4.75
2023-08-26T19:31:59.229Z,5.15
2023-08-26T19:34:26.328Z,4.45
2023-08-26T19:36:53.270Z,5.30
2023-08-26T19:39:20.283Z,4.45
2023-08-26T19:41:47.393Z,5.15
2023-08-26T19:44:14.496Z,5.60
2023-08-26T19:46:41.652Z,4.15
2023-08-26T19:49:08.752Z,4.75
2023-08-26T19:51:36.821Z,5.43
2023-08-26T19:54:04.873Z,5.65
2023-08-26T19:56:32.081Z,4.88
2023-08-26T19:58:58.994Z,5.00
2023-08-26T20:01:27.237Z,5.20
2023-08-26T20:03:54.232Z,6.32
2023-08-26T20:06:21.644Z,6.63
2023-08-26T20:08:48.648Z,6.70
2023-08-26T20:11:15.589Z,5.97
2023-08-26T20:13:42.600Z,5.68
2023-08-26T20:16:09.528Z,6.65
2023-08-26T20:18:36.713Z,5.85
2023-08-26T20:21:03.678Z,5.65
2023-08-26T20:23:31.051Z,5.22
2023-08-26T20:26:03.694Z,5.65
2023-08-26T20:28:31.119Z,6.32
2023-08-26T20:31:02.380Z,6.38
2023-08-26T20:33:29.697Z,5.95
2023-08-26T20:35:57.657Z,5.88
2023-08-26T20:38:24.676Z,6.25
2023-08-26T20:40:51.749Z,7.00
2023-08-26T20:43:21.653Z,5.93
2023-08-26T20:45:49.691Z,5.88
2023-08-26T20:48:17.086Z,6.75
2023-08-26T20:50:44.205Z,7.10
2023-08-26T20:53:11.136Z,7.72
2023-08-26T20:55:38.259Z,6.80
2023-08-26T20:58:05.310Z,7.70
2023-08-26T21:00:32.666Z,6.55
2023-08-26T21:02:59.851Z,6.85
2023-08-26T21:05:30.299Z,6.57
2023-08-26T21:07:57.326Z,6.85
2023-08-26T21:10:25.646Z,7.40
2023-08-26T21:12:52.785Z,6.55
2023-08-26T21:15:19.654Z,7.10
2023-08-26T21:17:46.789Z,7.50
2023-08-26T21:20:13.685Z,8.23
2023-08-26T21:22:41.059Z,7.18
2023-08-26T21:25:08.877Z,7.03
2023-08-26T21:27:37.439Z,7.22
2023-08-26T21:30:05.545Z,7.18
2023-08-26T21:32:38.398Z,7.75
2023-08-26T21:35:06.028Z,6.70
2023-08-26T21:37:33.877Z,7.07
2023-08-26T21:40:01.085Z,8.13
2023-08-26T21:42:27.966Z,7.43
2023-08-26T21:44:55.009Z,7.97
2023-08-26T21:47:21.929Z,8.43
2023-08-26T21:49:48.951Z,8.27
2023-08-26T21:52:15.926Z,7.70
2023-08-26T21:54:43.205Z,8.75
2023-08-26T21:57:10.105Z,10.15
2023-08-26T21:59:37.120Z,11.38
2023-08-26T22:02:05.028Z,9.02
2023-08-26T22:04:32.192Z,10.20
2023-08-26T22:06:59.104Z,9.43
2023-08-26T22:09:26.170Z,9.20
2023-08-26T22:11:54.034Z,10.02
2023-08-26T22:14:21.064Z,10.80
2023-08-26T22:16:48.344Z,9.68
2023-08-26T22:19:15.388Z,8.90
2023-08-26T22:21:42.609Z,9.20
2023-08-26T22:24:10.160Z,9.45
2023-08-26T22:26:37.103Z,9.32
2023-08-26T22:29:04.377Z,9.82
2023-08-26T22:31:31.593Z,10.18
2023-08-26T22:33:58.701Z,9.20
2023-08-26T22:36:25.831Z,8.80
2023-08-26T22:38:52.880Z,10.05
2023-08-26T22:41:19.772Z,9.18
2023-08-26T22:43:48.299Z,10.32
2023-08-26T22:46:15.300Z,10.20
2023-08-26T22:48:43.012Z,10.02
2023-08-26T22:51:09.944Z,10.93
2023-08-26T22:53:38.899Z,10.65
2023-08-26T22:56:07.105Z,10.45
2023-08-26T22:58:34.299Z,10.70
2023-08-26T23:01:04.951Z,12.70
2023-08-26T23:03:32.331Z,10.30
2023-08-26T23:06:06.212Z,12.30
2023-08-26T23:08:33.266Z,11.00
2023-08-26T23:11:00.725Z,10.70
2023-08-26T23:13:27.741Z,12.57
2023-08-26T23:15:54.683Z,10.50
2023-08-26T23:18:21.794Z,10.10
2023-08-26T23:20:48.768Z,10.18
2023-08-26T23:23:15.824Z,11.63
2023-08-26T23:25:42.699Z,9.63
2023-08-26T23:28:10.275Z,10.30
2023-08-26T23:30:41.503Z,11.05
2023-08-26T23:33:09.175Z,10.57
2023-08-26T23:35:36.284Z,9.65
2023-08-26T23:38:03.373Z,11.15
2023-08-26T23:40:30.354Z,11.43
2023-08-26T23:42:57.717Z,11.20
2023-08-26T23:45:24.893Z,10.73
2023-08-26T23:47:52.015Z,10.80
2023-08-26T23:50:22.299Z,11.15
2023-08-26T23:52:50.019Z,10.05
2023-08-26T23:55:17.774Z,9.93
2023-08-26T23:57:44.692Z,10.60
